sensor_id;sensor_type;location;lat;lon;timestamp;temperature;humidity
67759;SHT31;54562;47.620;18.786;2023-02-16T00:03:01;1.35;79.50
67759;SHT31;54562;47.620;18.786;2023-02-16T00:06:06;1.35;79.54
67759;SHT31;54562;47.620;18.786;2023-02-16T00:09:15;1.34;79.59
67759;SHT31;54562;47.620;18.786;2023-02-16T00:12:19;1.34;79.59
67759;SHT31;54562;47.620;18.786;2023-02-16T00:15:42;1.34;79.47
67759;SHT31;54562;47.620;18.786;2023-02-16T00:18:46;1.29;79.17
67759;SHT31;54562;47.620;18.786;2023-02-16T00:21:51;1.25;79.16
67759;SHT31;54562;47.620;18.786;2023-02-16T00:24:56;1.20;79.18
67759;SHT31;54562;47.620;18.786;2023-02-16T00:27:59;1.16;79.07
67759;SHT31;54562;47.620;18.786;2023-02-16T00:31:08;1.13;79.28
67759;SHT31;54562;47.620;18.786;2023-02-16T00:34:25;1.12;79.40
67759;SHT31;54562;47.620;18.786;2023-02-16T00:37:31;1.10;79.28
67759;SHT31;54562;47.620;18.786;2023-02-16T00:40:35;1.09;79.39
67759;SHT31;54562;47.620;18.786;2023-02-16T00:43:39;1.09;79.56
67759;SHT31;54562;47.620;18.786;2023-02-16T00:46:43;1.09;79.67
67759;SHT31;54562;47.620;18.786;2023-02-16T00:49:48;1.08;79.63
67759;SHT31;54562;47.620;18.786;2023-02-16T00:52:54;1.07;79.67
67759;SHT31;54562;47.620;18.786;2023-02-16T00:56:00;1.07;79.84
67759;SHT31;54562;47.620;18.786;2023-02-16T00:59:04;1.06;79.90
67759;SHT31;54562;47.620;18.786;2023-02-16T01:02:13;1.07;79.88
67759;SHT31;54562;47.620;18.786;2023-02-16T01:05:18;1.07;79.84
67759;SHT31;54562;47.620;18.786;2023-02-16T01:08:22;1.08;79.93
67759;SHT31;54562;47.620;18.786;2023-02-16T01:11:45;1.08;80.00
67759;SHT31;54562;47.620;18.786;2023-02-16T01:14:50;1.08;80.03
67759;SHT31;54562;47.620;18.786;2023-02-16T01:17:55;1.09;80.03
67759;SHT31;54562;47.620;18.786;2023-02-16T01:20:59;1.09;79.99
67759;SHT31;54562;47.620;18.786;2023-02-16T01:24:03;1.08;79.93
67759;SHT31;54562;47.620;18.786;2023-02-16T01:27:09;1.07;80.03
67759;SHT31;54562;47.620;18.786;2023-02-16T01:30:15;1.05;79.96
67759;SHT31;54562;47.620;18.786;2023-02-16T01:33:21;1.00;79.61
67759;SHT31;54562;47.620;18.786;2023-02-16T01:36:26;0.97;79.70
67759;SHT31;54562;47.620;18.786;2023-02-16T01:39:33;0.96;80.07
67759;SHT31;54562;47.620;18.786;2023-02-16T01:42:39;0.96;80.26
67759;SHT31;54562;47.620;18.786;2023-02-16T01:45:53;0.95;80.21
67759;SHT31;54562;47.620;18.786;2023-02-16T01:49:02;0.91;79.92
67759;SHT31;54562;47.620;18.786;2023-02-16T01:52:15;0.84;79.77
67759;SHT31;54562;47.620;18.786;2023-02-16T01:55:25;0.81;80.16
67759;SHT31;54562;47.620;18.786;2023-02-16T01:58:34;0.82;80.34
67759;SHT31;54562;47.620;18.786;2023-02-16T02:01:46;0.84;80.48
67759;SHT31;54562;47.620;18.786;2023-02-16T02:04:56;0.86;80.57
67759;SHT31;54562;47.620;18.786;2023-02-16T02:08:24;0.87;80.63
67759;SHT31;54562;47.620;18.786;2023-02-16T02:11:35;0.88;80.69
67759;SHT31;54562;47.620;18.786;2023-02-16T02:14:43;0.89;80.77
67759;SHT31;54562;47.620;18.786;2023-02-16T02:17:49;0.91;80.85
67759;SHT31;54562;47.620;18.786;2023-02-16T02:21:00;0.92;80.90
67759;SHT31;54562;47.620;18.786;2023-02-16T02:24:52;0.92;80.90
67759;SHT31;54562;47.620;18.786;2023-02-16T02:28:19;0.92;80.90
67759;SHT31;54562;47.620;18.786;2023-02-16T02:31:34;0.91;80.90
67759;SHT31;54562;47.620;18.786;2023-02-16T02:34:59;0.90;80.90
67759;SHT31;54562;47.620;18.786;2023-02-16T02:38:13;0.92;80.95
67759;SHT31;54562;47.620;18.786;2023-02-16T02:41:25;0.92;81.00
67759;SHT31;54562;47.620;18.786;2023-02-16T02:44:48;0.93;81.10
67759;SHT31;54562;47.620;18.786;2023-02-16T02:47:56;0.93;81.11
67759;SHT31;54562;47.620;18.786;2023-02-16T02:51:00;0.93;81.22
67759;SHT31;54562;47.620;18.786;2023-02-16T02:54:30;0.94;81.29
67759;SHT31;54562;47.620;18.786;2023-02-16T02:57:54;0.93;81.25
67759;SHT31;54562;47.620;18.786;2023-02-16T03:01:16;0.93;81.27
67759;SHT31;54562;47.620;18.786;2023-02-16T03:04:22;0.92;81.24
67759;SHT31;54562;47.620;18.786;2023-02-16T03:07:29;0.91;81.25
67759;SHT31;54562;47.620;18.786;2023-02-16T03:10:51;0.91;81.38
67759;SHT31;54562;47.620;18.786;2023-02-16T03:14:17;0.92;81.42
67759;SHT31;54562;47.620;18.786;2023-02-16T03:17:24;0.92;81.42
67759;SHT31;54562;47.620;18.786;2023-02-16T03:20:53;0.92;81.24
67759;SHT31;54562;47.620;18.786;2023-02-16T03:24:18;0.89;81.14
67759;SHT31;54562;47.620;18.786;2023-02-16T03:27:52;0.89;81.26
67759;SHT31;54562;47.620;18.786;2023-02-16T03:31:17;0.88;81.35
67759;SHT31;54562;47.620;18.786;2023-02-16T03:34:25;0.87;81.38
67759;SHT31;54562;47.620;18.786;2023-02-16T03:37:29;0.86;81.35
67759;SHT31;54562;47.620;18.786;2023-02-16T03:40:34;0.85;81.40
67759;SHT31;54562;47.620;18.786;2023-02-16T03:43:41;0.83;81.41
67759;SHT31;54562;47.620;18.786;2023-02-16T03:46:45;0.82;81.41
67759;SHT31;54562;47.620;18.786;2023-02-16T03:49:50;0.81;81.44
67759;SHT31;54562;47.620;18.786;2023-02-16T03:52:54;0.79;81.36
67759;SHT31;54562;47.620;18.786;2023-02-16T03:56:07;0.77;81.32
67759;SHT31;54562;47.620;18.786;2023-02-16T03:59:12;0.75;81.31
67759;SHT31;54562;47.620;18.786;2023-02-16T04:02:15;0.74;81.24
67759;SHT31;54562;47.620;18.786;2023-02-16T04:05:20;0.73;81.20
67759;SHT31;54562;47.620;18.786;2023-02-16T04:08:24;0.72;81.22
67759;SHT31;54562;47.620;18.786;2023-02-16T04:11:28;0.72;81.30
67759;SHT31;54562;47.620;18.786;2023-02-16T04:14:50;0.69;81.26
67759;SHT31;54562;47.620;18.786;2023-02-16T04:17:54;0.67;81.23
67759;SHT31;54562;47.620;18.786;2023-02-16T04:21:00;0.59;80.72
67759;SHT31;54562;47.620;18.786;2023-02-16T04:24:05;0.51;80.62
67759;SHT31;54562;47.620;18.786;2023-02-16T04:27:09;0.47;80.84
67759;SHT31;54562;47.620;18.786;2023-02-16T04:30:14;0.45;80.90
67759;SHT31;54562;47.620;18.786;2023-02-16T04:33:20;0.41;80.90
67759;SHT31;54562;47.620;18.786;2023-02-16T04:36:24;0.37;80.95
67759;SHT31;54562;47.620;18.786;2023-02-16T04:39:28;0.35;81.10
67759;SHT31;54562;47.620;18.786;2023-02-16T04:42:32;0.33;81.18
67759;SHT31;54562;47.620;18.786;2023-02-16T04:45:36;0.32;81.12
67759;SHT31;54562;47.620;18.786;2023-02-16T04:48:40;0.31;81.14
67759;SHT31;54562;47.620;18.786;2023-02-16T04:51:44;0.32;81.26
67759;SHT31;54562;47.620;18.786;2023-02-16T04:54:48;0.29;81.15
67759;SHT31;54562;47.620;18.786;2023-02-16T04:57:52;0.23;80.71
67759;SHT31;54562;47.620;18.786;2023-02-16T05:00:56;0.19;80.82
67759;SHT31;54562;47.620;18.786;2023-02-16T05:04:00;0.15;80.96
67759;SHT31;54562;47.620;18.786;2023-02-16T05:07:04;0.14;81.32
67759;SHT31;54562;47.620;18.786;2023-02-16T05:10:09;0.16;81.48
67759;SHT31;54562;47.620;18.786;2023-02-16T05:13:13;0.13;81.27
67759;SHT31;54562;47.620;18.786;2023-02-16T05:16:36;0.08;80.89
67759;SHT31;54562;47.620;18.786;2023-02-16T05:19:40;0.03;80.81
67759;SHT31;54562;47.620;18.786;2023-02-16T05:22:45;-0.00;80.99
67759;SHT31;54562;47.620;18.786;2023-02-16T05:25:48;-0.01;81.18
67759;SHT31;54562;47.620;18.786;2023-02-16T05:28:52;-0.01;81.39
67759;SHT31;54562;47.620;18.786;2023-02-16T05:31:56;-0.01;81.33
67759;SHT31;54562;47.620;18.786;2023-02-16T05:35:01;-0.06;81.06
67759;SHT31;54562;47.620;18.786;2023-02-16T05:38:05;-0.11;80.91
67759;SHT31;54562;47.620;18.786;2023-02-16T05:41:10;-0.11;81.30
67759;SHT31;54562;47.620;18.786;2023-02-16T05:44:24;-0.07;81.68
67759;SHT31;54562;47.620;18.786;2023-02-16T05:47:28;-0.03;81.85
67759;SHT31;54562;47.620;18.786;2023-02-16T05:50:32;-0.01;81.80
67759;SHT31;54562;47.620;18.786;2023-02-16T05:53:37;0.01;81.92
67759;SHT31;54562;47.620;18.786;2023-02-16T05:56:41;0.03;81.88
67759;SHT31;54562;47.620;18.786;2023-02-16T05:59:46;0.03;81.99
67759;SHT31;54562;47.620;18.786;2023-02-16T06:02:50;0.07;82.10
67759;SHT31;54562;47.620;18.786;2023-02-16T06:05:55;0.09;82.00
67759;SHT31;54562;47.620;18.786;2023-02-16T06:09:00;0.10;82.01
67759;SHT31;54562;47.620;18.786;2023-02-16T06:12:04;0.12;82.10
67759;SHT31;54562;47.620;18.786;2023-02-16T06:15:09;0.14;82.10
67759;SHT31;54562;47.620;18.786;2023-02-16T06:18:13;0.14;81.93
67759;SHT31;54562;47.620;18.786;2023-02-16T06:21:17;0.15;81.91
67759;SHT31;54562;47.620;18.786;2023-02-16T06:24:21;0.19;82.13
67759;SHT31;54562;47.620;18.786;2023-02-16T06:27:26;0.25;82.37
67759;SHT31;54562;47.620;18.786;2023-02-16T06:30:30;0.32;82.37
67759;SHT31;54562;47.620;18.786;2023-02-16T06:33:36;0.33;81.45
67759;SHT31;54562;47.620;18.786;2023-02-16T06:36:40;0.32;81.21
67759;SHT31;54562;47.620;18.786;2023-02-16T06:39:44;0.35;81.37
67759;SHT31;54562;47.620;18.786;2023-02-16T06:42:49;0.41;81.55
67759;SHT31;54562;47.620;18.786;2023-02-16T06:45:54;0.51;81.82
67759;SHT31;54562;47.620;18.786;2023-02-16T06:48:58;0.62;82.02
67759;SHT31;54562;47.620;18.786;2023-02-16T06:52:02;0.73;82.23
67759;SHT31;54562;47.620;18.786;2023-02-16T06:55:07;0.82;82.28
67759;SHT31;54562;47.620;18.786;2023-02-16T06:58:12;0.93;82.23
67759;SHT31;54562;47.620;18.786;2023-02-16T07:01:16;1.05;82.24
67759;SHT31;54562;47.620;18.786;2023-02-16T07:04:24;1.16;82.22
67759;SHT31;54562;47.620;18.786;2023-02-16T07:07:28;1.30;82.31
67759;SHT31;54562;47.620;18.786;2023-02-16T07:10:33;1.45;82.73
67759;SHT31;54562;47.620;18.786;2023-02-16T07:13:51;1.59;82.47
67759;SHT31;54562;47.620;18.786;2023-02-16T07:16:55;1.67;81.98
67759;SHT31;54562;47.620;18.786;2023-02-16T07:20:05;1.77;81.91
67759;SHT31;54562;47.620;18.786;2023-02-16T07:23:10;1.90;82.15
67759;SHT31;54562;47.620;18.786;2023-02-16T07:26:21;2.01;82.28
67759;SHT31;54562;47.620;18.786;2023-02-16T07:29:32;2.18;82.77
67759;SHT31;54562;47.620;18.786;2023-02-16T07:32:36;2.33;83.01
67759;SHT31;54562;47.620;18.786;2023-02-16T07:35:41;2.49;83.24
67759;SHT31;54562;47.620;18.786;2023-02-16T07:38:46;2.66;83.29
67759;SHT31;54562;47.620;18.786;2023-02-16T07:41:50;2.81;83.12
67759;SHT31;54562;47.620;18.786;2023-02-16T07:44:55;2.93;82.85
67759;SHT31;54562;47.620;18.786;2023-02-16T07:47:59;3.01;82.68
67759;SHT31;54562;47.620;18.786;2023-02-16T07:51:04;3.07;82.25
67759;SHT31;54562;47.620;18.786;2023-02-16T07:54:09;3.12;82.17
67759;SHT31;54562;47.620;18.786;2023-02-16T07:57:13;3.20;82.28
67759;SHT31;54562;47.620;18.786;2023-02-16T08:00:18;3.30;82.18
67759;SHT31;54562;47.620;18.786;2023-02-16T08:03:23;3.40;82.15
67759;SHT31;54562;47.620;18.786;2023-02-16T08:06:28;3.51;82.09
67759;SHT31;54562;47.620;18.786;2023-02-16T08:09:32;3.60;81.88
67759;SHT31;54562;47.620;18.786;2023-02-16T08:12:36;3.65;81.48
67759;SHT31;54562;47.620;18.786;2023-02-16T08:15:41;3.66;81.28
67759;SHT31;54562;47.620;18.786;2023-02-16T08:18:45;3.69;81.18
67759;SHT31;54562;47.620;18.786;2023-02-16T08:21:51;3.71;81.02
67759;SHT31;54562;47.620;18.786;2023-02-16T08:24:55;3.71;81.08
67759;SHT31;54562;47.620;18.786;2023-02-16T08:28:00;3.74;80.87
67759;SHT31;54562;47.620;18.786;2023-02-16T08:31:04;3.78;80.88
67759;SHT31;54562;47.620;18.786;2023-02-16T08:34:09;3.87;81.09
67759;SHT31;54562;47.620;18.786;2023-02-16T08:37:14;3.99;81.13
67759;SHT31;54562;47.620;18.786;2023-02-16T08:40:19;4.10;80.98
67759;SHT31;54562;47.620;18.786;2023-02-16T08:43:26;4.16;80.81
67759;SHT31;54562;47.620;18.786;2023-02-16T08:46:30;4.23;80.63
67759;SHT31;54562;47.620;18.786;2023-02-16T08:49:35;4.32;80.83
67759;SHT31;54562;47.620;18.786;2023-02-16T08:52:40;4.42;80.47
67759;SHT31;54562;47.620;18.786;2023-02-16T08:55:50;4.50;80.26
67759;SHT31;54562;47.620;18.786;2023-02-16T08:58:55;4.57;80.22
67759;SHT31;54562;47.620;18.786;2023-02-16T09:01:59;4.67;80.09
67759;SHT31;54562;47.620;18.786;2023-02-16T09:05:04;4.79;79.95
67759;SHT31;54562;47.620;18.786;2023-02-16T09:08:09;4.91;80.03
67759;SHT31;54562;47.620;18.786;2023-02-16T09:11:14;5.09;79.84
67759;SHT31;54562;47.620;18.786;2023-02-16T09:14:18;5.26;79.59
67759;SHT31;54562;47.620;18.786;2023-02-16T09:17:24;5.39;79.22
67759;SHT31;54562;47.620;18.786;2023-02-16T09:20:30;5.51;78.89
67759;SHT31;54562;47.620;18.786;2023-02-16T09:23:34;5.60;78.56
67759;SHT31;54562;47.620;18.786;2023-02-16T09:26:38;5.68;78.36
67759;SHT31;54562;47.620;18.786;2023-02-16T09:29:43;5.78;77.96
67759;SHT31;54562;47.620;18.786;2023-02-16T09:32:48;5.91;77.92
67759;SHT31;54562;47.620;18.786;2023-02-16T09:35:52;6.08;77.80
67759;SHT31;54562;47.620;18.786;2023-02-16T09:38:56;6.24;77.46
67759;SHT31;54562;47.620;18.786;2023-02-16T09:42:09;6.39;77.08
67759;SHT31;54562;47.620;18.786;2023-02-16T09:45:19;6.53;76.53
67759;SHT31;54562;47.620;18.786;2023-02-16T09:48:30;6.65;76.10
67759;SHT31;54562;47.620;18.786;2023-02-16T09:51:38;6.76;75.64
67759;SHT31;54562;47.620;18.786;2023-02-16T09:54:44;6.84;75.28
67759;SHT31;54562;47.620;18.786;2023-02-16T09:57:56;6.93;75.13
67759;SHT31;54562;47.620;18.786;2023-02-16T10:01:08;7.04;74.84
67759;SHT31;54562;47.620;18.786;2023-02-16T10:04:25;7.17;74.94
67759;SHT31;54562;47.620;18.786;2023-02-16T10:07:42;7.36;74.57
67759;SHT31;54562;47.620;18.786;2023-02-16T10:11:01;7.48;74.15
67759;SHT31;54562;47.620;18.786;2023-02-16T10:14:30;7.62;73.97
67759;SHT31;54562;47.620;18.786;2023-02-16T10:17:40;7.75;73.72
67759;SHT31;54562;47.620;18.786;2023-02-16T10:20:49;7.89;73.38
67759;SHT31;54562;47.620;18.786;2023-02-16T10:23:58;8.01;72.90
67759;SHT31;54562;47.620;18.786;2023-02-16T10:27:05;8.13;72.96
67759;SHT31;54562;47.620;18.786;2023-02-16T10:30:16;8.27;72.63
67759;SHT31;54562;47.620;18.786;2023-02-16T10:33:26;8.43;72.28
67759;SHT31;54562;47.620;18.786;2023-02-16T10:36:41;8.59;72.10
67759;SHT31;54562;47.620;18.786;2023-02-16T10:40:01;8.74;71.86
67759;SHT31;54562;47.620;18.786;2023-02-16T10:43:18;8.93;71.52
67759;SHT31;54562;47.620;18.786;2023-02-16T10:46:28;9.06;70.95
67759;SHT31;54562;47.620;18.786;2023-02-16T10:49:36;9.19;70.99
67759;SHT31;54562;47.620;18.786;2023-02-16T10:52:40;9.38;70.82
67759;SHT31;54562;47.620;18.786;2023-02-16T10:55:46;9.53;70.37
67759;SHT31;54562;47.620;18.786;2023-02-16T10:58:50;9.63;69.88
67759;SHT31;54562;47.620;18.786;2023-02-16T11:01:56;9.73;69.49
67759;SHT31;54562;47.620;18.786;2023-02-16T11:05:02;9.87;69.25
67759;SHT31;54562;47.620;18.786;2023-02-16T11:08:27;10.03;69.03
67759;SHT31;54562;47.620;18.786;2023-02-16T11:11:51;10.14;68.56
67759;SHT31;54562;47.620;18.786;2023-02-16T11:14:56;10.20;68.32
67759;SHT31;54562;47.620;18.786;2023-02-16T11:18:04;10.31;68.24
67759;SHT31;54562;47.620;18.786;2023-02-16T11:21:10;10.40;67.69
67759;SHT31;54562;47.620;18.786;2023-02-16T11:24:23;10.39;67.44
67759;SHT31;54562;47.620;18.786;2023-02-16T11:27:29;10.45;67.53
67759;SHT31;54562;47.620;18.786;2023-02-16T11:30:34;10.52;67.37
67759;SHT31;54562;47.620;18.786;2023-02-16T11:33:40;10.60;67.05
67759;SHT31;54562;47.620;18.786;2023-02-16T11:37:00;10.59;66.82
67759;SHT31;54562;47.620;18.786;2023-02-16T11:40:19;10.67;66.67
67759;SHT31;54562;47.620;18.786;2023-02-16T11:46:54;10.97;66.60
67759;SHT31;54562;47.620;18.786;2023-02-16T11:50:08;11.08;65.93
67759;SHT31;54562;47.620;18.786;2023-02-16T11:53:22;11.17;65.94
67759;SHT31;54562;47.620;18.786;2023-02-16T11:56:28;11.27;65.53
67759;SHT31;54562;47.620;18.786;2023-02-16T11:59:34;11.26;64.93
67759;SHT31;54562;47.620;18.786;2023-02-16T12:02:46;11.19;65.59
67759;SHT31;54562;47.620;18.786;2023-02-16T12:06:08;11.27;65.46
67759;SHT31;54562;47.620;18.786;2023-02-16T12:09:23;11.36;65.03
67759;SHT31;54562;47.620;18.786;2023-02-16T12:12:38;11.43;65.11
67759;SHT31;54562;47.620;18.786;2023-02-16T12:15:52;11.49;65.03
67759;SHT31;54562;47.620;18.786;2023-02-16T12:19:10;11.53;64.49
67759;SHT31;54562;47.620;18.786;2023-02-16T12:22:27;11.55;64.53
67759;SHT31;54562;47.620;18.786;2023-02-16T12:25:37;11.63;64.47
67759;SHT31;54562;47.620;18.786;2023-02-16T12:28:49;11.77;64.26
67759;SHT31;54562;47.620;18.786;2023-02-16T12:32:03;11.90;64.00
67759;SHT31;54562;47.620;18.786;2023-02-16T12:35:26;11.99;63.81
67759;SHT31;54562;47.620;18.786;2023-02-16T12:38:43;12.10;63.84
67759;SHT31;54562;47.620;18.786;2023-02-16T12:42:03;12.16;63.42
67759;SHT31;54562;47.620;18.786;2023-02-16T12:45:21;12.19;63.07
67759;SHT31;54562;47.620;18.786;2023-02-16T12:48:32;12.20;62.72
67759;SHT31;54562;47.620;18.786;2023-02-16T12:51:46;12.25;62.62
67759;SHT31;54562;47.620;18.786;2023-02-16T12:54:54;12.24;62.56
67759;SHT31;54562;47.620;18.786;2023-02-16T12:58:07;12.30;62.63
67759;SHT31;54562;47.620;18.786;2023-02-16T13:01:18;12.45;62.58
67759;SHT31;54562;47.620;18.786;2023-02-16T13:04:33;12.55;62.20
67759;SHT31;54562;47.620;18.786;2023-02-16T13:07:41;12.68;61.78
67759;SHT31;54562;47.620;18.786;2023-02-16T13:10:52;12.69;61.30
67759;SHT31;54562;47.620;18.786;2023-02-16T13:14:00;12.73;61.42
67759;SHT31;54562;47.620;18.786;2023-02-16T13:17:09;12.91;61.29
67759;SHT31;54562;47.620;18.786;2023-02-16T13:20:19;12.99;61.00
67759;SHT31;54562;47.620;18.786;2023-02-16T13:23:36;13.09;60.91
67759;SHT31;54562;47.620;18.786;2023-02-16T13:26:56;13.23;60.45
67759;SHT31;54562;47.620;18.786;2023-02-16T13:30:28;13.16;59.96
67759;SHT31;54562;47.620;18.786;2023-02-16T13:33:53;13.19;59.99
67759;SHT31;54562;47.620;18.786;2023-02-16T13:40:53;13.52;59.35
67759;SHT31;54562;47.620;18.786;2023-02-16T13:44:16;13.74;58.93
67759;SHT31;54562;47.620;18.786;2023-02-16T13:47:24;13.92;58.70
67759;SHT31;54562;47.620;18.786;2023-02-16T13:50:31;14.07;58.78
67759;SHT31;54562;47.620;18.786;2023-02-16T13:53:37;14.06;58.26
67759;SHT31;54562;47.620;18.786;2023-02-16T13:56:43;13.96;57.91
67759;SHT31;54562;47.620;18.786;2023-02-16T13:59:48;13.74;58.11
67759;SHT31;54562;47.620;18.786;2023-02-16T14:03:02;13.47;58.43
67759;SHT31;54562;47.620;18.786;2023-02-16T14:09:47;12.90;59.31
67759;SHT31;54562;47.620;18.786;2023-02-16T14:12:54;12.70;59.62
67759;SHT31;54562;47.620;18.786;2023-02-16T14:15:59;12.52;59.63
67759;SHT31;54562;47.620;18.786;2023-02-16T14:19:16;12.34;59.92
67759;SHT31;54562;47.620;18.786;2023-02-16T14:22:31;12.13;60.23
67759;SHT31;54562;47.620;18.786;2023-02-16T14:25:41;11.83;60.77
67759;SHT31;54562;47.620;18.786;2023-02-16T14:32:20;11.36;61.52
67759;SHT31;54562;47.620;18.786;2023-02-16T14:35:29;11.27;61.72
67759;SHT31;54562;47.620;18.786;2023-02-16T14:38:37;11.31;61.77
67759;SHT31;54562;47.620;18.786;2023-02-16T14:41:48;11.30;61.78
67759;SHT31;54562;47.620;18.786;2023-02-16T14:44:59;11.20;61.96
67759;SHT31;54562;47.620;18.786;2023-02-16T14:48:16;11.06;62.25
67759;SHT31;54562;47.620;18.786;2023-02-16T14:51:37;10.97;62.52
67759;SHT31;54562;47.620;18.786;2023-02-16T14:55:04;10.85;62.78
67759;SHT31;54562;47.620;18.786;2023-02-16T14:58:29;10.63;62.94
67759;SHT31;54562;47.620;18.786;2023-02-16T15:01:41;10.45;63.53
67759;SHT31;54562;47.620;18.786;2023-02-16T15:04:47;10.39;63.61
67759;SHT31;54562;47.620;18.786;2023-02-16T15:07:52;10.28;63.75
67759;SHT31;54562;47.620;18.786;2023-02-16T15:14:31;9.94;64.27
67759;SHT31;54562;47.620;18.786;2023-02-16T15:17:43;9.77;64.42
67759;SHT31;54562;47.620;18.786;2023-02-16T15:20:49;9.65;64.90
67759;SHT31;54562;47.620;18.786;2023-02-16T15:23:56;9.49;65.14
67759;SHT31;54562;47.620;18.786;2023-02-16T15:27:01;9.35;65.33
67759;SHT31;54562;47.620;18.786;2023-02-16T15:30:17;9.21;65.51
67759;SHT31;54562;47.620;18.786;2023-02-16T15:33:27;9.03;65.83
67759;SHT31;54562;47.620;18.786;2023-02-16T15:36:36;8.86;66.21
67759;SHT31;54562;47.620;18.786;2023-02-16T15:39:44;8.69;66.50
67759;SHT31;54562;47.620;18.786;2023-02-16T15:43:14;8.51;66.80
67759;SHT31;54562;47.620;18.786;2023-02-16T15:46:28;8.34;67.09
67759;SHT31;54562;47.620;18.786;2023-02-16T15:49:34;8.18;67.20
67759;SHT31;54562;47.620;18.786;2023-02-16T15:52:39;7.98;67.50
67759;SHT31;54562;47.620;18.786;2023-02-16T15:55:44;7.78;67.89
67759;SHT31;54562;47.620;18.786;2023-02-16T15:58:51;7.67;68.20
67759;SHT31;54562;47.620;18.786;2023-02-16T16:01:57;7.61;68.28
67759;SHT31;54562;47.620;18.786;2023-02-16T16:05:05;7.54;68.30
67759;SHT31;54562;47.620;18.786;2023-02-16T16:08:11;7.46;68.24
67759;SHT31;54562;47.620;18.786;2023-02-16T16:11:18;7.37;68.32
67759;SHT31;54562;47.620;18.786;2023-02-16T16:14:24;7.27;68.28
67759;SHT31;54562;47.620;18.786;2023-02-16T16:17:30;7.15;68.35
67759;SHT31;54562;47.620;18.786;2023-02-16T16:20:38;7.06;68.66
67759;SHT31;54562;47.620;18.786;2023-02-16T16:23:58;6.96;68.89
67759;SHT31;54562;47.620;18.786;2023-02-16T16:27:05;6.87;69.21
67759;SHT31;54562;47.620;18.786;2023-02-16T16:30:19;6.79;69.38
67759;SHT31;54562;47.620;18.786;2023-02-16T16:36:56;6.57;69.82
67759;SHT31;54562;47.620;18.786;2023-02-16T16:40:03;6.44;68.78
67759;SHT31;54562;47.620;18.786;2023-02-16T16:43:16;6.27;69.03
67759;SHT31;54562;47.620;18.786;2023-02-16T16:46:24;6.17;69.59
67759;SHT31;54562;47.620;18.786;2023-02-16T16:49:31;6.09;69.72
67759;SHT31;54562;47.620;18.786;2023-02-16T16:52:40;6.03;70.28
67759;SHT31;54562;47.620;18.786;2023-02-16T16:55:48;5.97;70.61
67759;SHT31;54562;47.620;18.786;2023-02-16T16:58:52;5.91;70.64
67759;SHT31;54562;47.620;18.786;2023-02-16T17:01:58;5.81;70.55
67759;SHT31;54562;47.620;18.786;2023-02-16T17:05:03;5.70;70.95
67759;SHT31;54562;47.620;18.786;2023-02-16T17:08:09;5.64;71.51
67759;SHT31;54562;47.620;18.786;2023-02-16T17:11:15;5.59;71.19
67759;SHT31;54562;47.620;18.786;2023-02-16T17:14:25;5.48;71.32
67759;SHT31;54562;47.620;18.786;2023-02-16T17:17:30;5.43;72.07
67759;SHT31;54562;47.620;18.786;2023-02-16T17:20:34;5.39;72.43
67759;SHT31;54562;47.620;18.786;2023-02-16T17:23:39;5.33;72.24
67759;SHT31;54562;47.620;18.786;2023-02-16T17:26:55;5.25;72.43
67759;SHT31;54562;47.620;18.786;2023-02-16T17:29:59;5.17;72.85
67759;SHT31;54562;47.620;18.786;2023-02-16T17:33:04;5.11;73.26
67759;SHT31;54562;47.620;18.786;2023-02-16T17:36:11;5.06;73.54
67759;SHT31;54562;47.620;18.786;2023-02-16T17:39:18;5.02;73.77
67759;SHT31;54562;47.620;18.786;2023-02-16T17:42:22;4.97;73.78
67759;SHT31;54562;47.620;18.786;2023-02-16T17:45:28;4.91;74.11
67759;SHT31;54562;47.620;18.786;2023-02-16T17:48:33;4.87;74.18
67759;SHT31;54562;47.620;18.786;2023-02-16T17:51:38;4.82;74.24
67759;SHT31;54562;47.620;18.786;2023-02-16T17:55:44;4.73;74.50
67759;SHT31;54562;47.620;18.786;2023-02-16T17:58:53;4.65;74.63
67759;SHT31;54562;47.620;18.786;2023-02-16T18:04:31;4.49;75.27
67759;SHT31;54562;47.620;18.786;2023-02-16T18:07:47;4.43;75.44
67759;SHT31;54562;47.620;18.786;2023-02-16T18:10:57;4.37;75.66
67759;SHT31;54562;47.620;18.786;2023-02-16T18:14:06;4.30;75.90
67759;SHT31;54562;47.620;18.786;2023-02-16T18:20:49;4.14;76.18
67759;SHT31;54562;47.620;18.786;2023-02-16T18:23:57;4.05;76.53
67759;SHT31;54562;47.620;18.786;2023-02-16T18:37:00;3.70;77.24
67759;SHT31;54562;47.620;18.786;2023-02-16T18:40:10;3.64;77.45
67759;SHT31;54562;47.620;18.786;2023-02-16T18:43:46;3.58;77.64
67759;SHT31;54562;47.620;18.786;2023-02-16T18:46:55;3.51;77.69
67759;SHT31;54562;47.620;18.786;2023-02-16T18:50:04;3.44;77.83
67759;SHT31;54562;47.620;18.786;2023-02-16T18:53:15;3.36;78.08
67759;SHT31;54562;47.620;18.786;2023-02-16T18:56:24;3.29;78.08
67759;SHT31;54562;47.620;18.786;2023-02-16T19:03:10;3.22;78.35
67759;SHT31;54562;47.620;18.786;2023-02-16T19:06:18;3.19;78.50
67759;SHT31;54562;47.620;18.786;2023-02-16T19:09:27;3.16;78.57
67759;SHT31;54562;47.620;18.786;2023-02-16T19:12:45;3.12;78.72
67759;SHT31;54562;47.620;18.786;2023-02-16T19:15:53;3.07;78.78
67759;SHT31;54562;47.620;18.786;2023-02-16T19:19:02;3.03;78.83
67759;SHT31;54562;47.620;18.786;2023-02-16T19:22:11;2.97;78.72
67759;SHT31;54562;47.620;18.786;2023-02-16T19:25:19;2.92;78.58
67759;SHT31;54562;47.620;18.786;2023-02-16T19:28:29;2.86;78.56
67759;SHT31;54562;47.620;18.786;2023-02-16T19:31:37;2.79;78.88
67759;SHT31;54562;47.620;18.786;2023-02-16T19:34:46;2.74;79.13
67759;SHT31;54562;47.620;18.786;2023-02-16T19:37:54;2.71;79.22
67759;SHT31;54562;47.620;18.786;2023-02-16T19:41:07;2.64;78.94
67759;SHT31;54562;47.620;18.786;2023-02-16T19:44:19;2.57;78.80
67759;SHT31;54562;47.620;18.786;2023-02-16T19:47:27;2.47;78.87
67759;SHT31;54562;47.620;18.786;2023-02-16T19:50:36;2.44;79.21
67759;SHT31;54562;47.620;18.786;2023-02-16T19:53:44;2.40;79.38
67759;SHT31;54562;47.620;18.786;2023-02-16T19:56:54;2.36;79.17
67759;SHT31;54562;47.620;18.786;2023-02-16T20:00:02;2.29;79.07
67759;SHT31;54562;47.620;18.786;2023-02-16T20:03:15;2.20;79.02
67759;SHT31;54562;47.620;18.786;2023-02-16T20:06:26;2.14;78.75
67759;SHT31;54562;47.620;18.786;2023-02-16T20:09:36;2.08;78.76
67759;SHT31;54562;47.620;18.786;2023-02-16T20:12:44;2.05;78.83
67759;SHT31;54562;47.620;18.786;2023-02-16T20:15:52;2.03;79.05
67759;SHT31;54562;47.620;18.786;2023-02-16T20:19:03;2.03;79.20
67759;SHT31;54562;47.620;18.786;2023-02-16T20:22:12;2.02;79.20
67759;SHT31;54562;47.620;18.786;2023-02-16T20:25:20;2.00;79.16
67759;SHT31;54562;47.620;18.786;2023-02-16T20:28:28;1.96;79.12
67759;SHT31;54562;47.620;18.786;2023-02-16T20:31:37;1.94;79.30
67759;SHT31;54562;47.620;18.786;2023-02-16T20:34:50;1.92;79.29